createdAt,value
2022-09-26T00:01:37.717Z,10.57
2022-09-26T00:04:08.291Z,11.77
2022-09-26T00:06:35.733Z,10.50
2022-09-26T00:09:18.118Z,9.27
2022-09-26T00:11:45.302Z,8.27
2022-09-26T00:14:18.801Z,9.27
2022-09-26T00:16:47.157Z,11.60
2022-09-26T00:19:14.484Z,8.83
2022-09-26T00:21:43.393Z,8.53
2022-09-26T00:24:11.330Z,10.90
2022-09-26T00:26:38.534Z,8.27
2022-09-26T00:29:08.971Z,6.70
2022-09-26T00:31:40.829Z,6.67
2022-09-26T00:34:07.877Z,7.67
2022-09-26T00:36:38.366Z,9.53
2022-09-26T00:39:07.987Z,8.37
2022-09-26T00:41:36.301Z,12.53
2022-09-26T00:44:42.771Z,8.97
2022-09-26T00:47:23.500Z,9.90
2022-09-26T00:49:56.350Z,7.20
2022-09-26T00:52:31.067Z,9.50
2022-09-26T00:55:02.446Z,8.40
2022-09-26T00:57:36.421Z,8.83
2022-09-26T01:00:09.050Z,9.77
2022-09-26T01:02:37.186Z,8.03
2022-09-26T01:05:06.228Z,8.07
2022-09-26T01:07:33.885Z,7.37
2022-09-26T01:10:05.008Z,9.07
2022-09-26T01:12:32.112Z,8.47
2022-09-26T01:15:01.606Z,9.47
2022-09-26T01:17:30.747Z,9.07
2022-09-26T01:20:30.941Z,9.03
2022-09-26T01:23:20.412Z,7.50
2022-09-26T01:26:18.273Z,10.23
2022-09-26T01:28:53.113Z,7.27
2022-09-26T01:31:41.730Z,8.20
2022-09-26T01:34:42.117Z,6.77
2022-09-26T01:37:10.763Z,8.27
2022-09-26T01:39:55.458Z,8.77
2022-09-26T01:43:08.244Z,6.10
2022-09-26T01:45:58.542Z,8.20
2022-09-26T01:48:32.436Z,9.03
2022-09-26T01:51:10.091Z,7.43
2022-09-26T01:53:47.120Z,6.37
2022-09-26T01:56:18.703Z,6.67
2022-09-26T01:58:58.670Z,10.07
2022-09-26T02:01:34.268Z,8.30
2022-09-26T02:04:09.600Z,5.70
2022-09-26T02:06:48.153Z,7.50
2022-09-26T02:09:26.174Z,8.40
2022-09-26T02:12:04.052Z,9.17
2022-09-26T02:14:37.449Z,8.67
2022-09-26T02:17:11.782Z,7.90
2022-09-26T02:19:59.766Z,7.90
2022-09-26T02:22:31.867Z,7.73
2022-09-26T02:25:00.806Z,7.87
2022-09-26T02:27:29.463Z,5.37
2022-09-26T02:29:59.441Z,8.02
2022-09-26T02:32:29.875Z,9.60
2022-09-26T02:34:58.386Z,6.03
2022-09-26T02:37:28.740Z,7.20
2022-09-26T02:39:56.855Z,5.87
2022-09-26T02:42:40.205Z,7.07
2022-09-26T02:45:37.396Z,8.07
2022-09-26T02:48:23.860Z,7.27
2022-09-26T02:51:08.252Z,7.33
2022-09-26T02:54:14.170Z,7.47
2022-09-26T02:56:58.703Z,7.63
2022-09-26T02:59:57.720Z,7.93
2022-09-26T03:02:46.796Z,6.87
2022-09-26T03:05:23.698Z,7.27
2022-09-26T03:08:18.592Z,10.00
2022-09-26T03:10:49.220Z,8.30
2022-09-26T03:13:19.083Z,8.47
2022-09-26T03:15:56.608Z,9.07
2022-09-26T03:18:37.747Z,7.23
2022-09-26T03:21:04.914Z,8.73
2022-09-26T03:23:31.730Z,8.37
2022-09-26T03:26:18.939Z,5.53
2022-09-26T03:28:58.022Z,9.07
2022-09-26T03:31:28.306Z,6.03
2022-09-26T03:34:06.607Z,7.50
2022-09-26T03:36:34.173Z,8.40
2022-09-26T03:39:05.034Z,9.77
2022-09-26T03:41:39.481Z,8.63
2022-09-26T03:44:26.633Z,8.57
2022-09-26T03:47:11.708Z,7.40
2022-09-26T03:49:41.723Z,9.83
2022-09-26T03:52:12.979Z,5.60
2022-09-26T03:54:41.920Z,8.30
2022-09-26T03:57:15.389Z,6.83
2022-09-26T03:59:48.367Z,7.40
2022-09-26T04:02:17.149Z,7.23
2022-09-26T04:04:49.267Z,8.00
2022-09-26T04:07:20.225Z,7.23
2022-09-26T04:09:49.370Z,6.93
2022-09-26T04:12:17.274Z,6.97
2022-09-26T04:14:44.377Z,6.57
2022-09-26T04:17:13.418Z,6.03
2022-09-26T04:19:45.496Z,6.67
2022-09-26T04:22:12.629Z,5.10
2022-09-26T04:24:39.519Z,5.97
2022-09-26T04:27:13.283Z,6.90
2022-09-26T04:29:54.442Z,7.10
2022-09-26T04:32:30.729Z,7.03
2022-09-26T04:35:36.102Z,13.43
2022-09-26T04:38:04.596Z,14.93
2022-09-26T04:40:34.696Z,15.30
2022-09-26T04:43:06.887Z,14.40
2022-09-26T04:45:33.640Z,12.43
2022-09-26T04:48:01.705Z,19.60
2022-09-26T04:50:44.725Z,21.67
2022-09-26T04:53:12.249Z,18.73
2022-09-26T04:55:54.757Z,14.97
2022-09-26T04:58:22.755Z,9.10
2022-09-26T05:00:50.896Z,11.03
2022-09-26T05:03:29.365Z,8.23
2022-09-26T05:05:56.667Z,6.33
2022-09-26T05:08:23.726Z,8.40
2022-09-26T05:10:57.699Z,10.30
2022-09-26T05:13:26.190Z,8.03
2022-09-26T05:15:55.306Z,7.27
2022-09-26T05:18:29.187Z,4.87
2022-09-26T05:20:57.925Z,6.43
2022-09-26T05:23:45.394Z,7.83
2022-09-26T05:26:26.159Z,6.83
2022-09-26T05:29:17.053Z,6.30
2022-09-26T05:31:56.659Z,9.00
2022-09-26T05:34:26.369Z,9.53
2022-09-26T05:36:56.728Z,7.43
2022-09-26T05:39:44.576Z,6.80
2022-09-26T05:42:12.934Z,7.43
2022-09-26T05:44:43.657Z,5.77
2022-09-26T05:47:11.602Z,6.40
2022-09-26T05:49:38.450Z,5.87
2022-09-26T05:52:08.699Z,6.53
2022-09-26T05:54:39.557Z,5.37
2022-09-26T05:57:26.215Z,7.97
2022-09-26T05:59:59.509Z,9.17
2022-09-26T06:02:46.605Z,5.60
2022-09-26T06:05:26.476Z,6.40
2022-09-26T06:08:12.139Z,5.43
2022-09-26T06:10:44.405Z,6.97
2022-09-26T06:13:15.288Z,7.90
2022-09-26T06:15:50.799Z,7.27
2022-09-26T06:18:17.776Z,5.40
2022-09-26T06:20:47.056Z,6.53
2022-09-26T06:23:14.587Z,10.63
2022-09-26T06:25:45.019Z,5.50
2022-09-26T06:28:13.348Z,6.50
2022-09-26T06:30:40.097Z,6.43
2022-09-26T06:33:17.335Z,4.00
2022-09-26T06:36:00.634Z,4.67
2022-09-26T06:38:33.570Z,8.07
2022-09-26T06:41:00.415Z,4.80
2022-09-26T06:43:27.763Z,4.33
2022-09-26T06:46:15.995Z,4.97
2022-09-26T06:48:55.213Z,5.03
2022-09-26T06:51:40.808Z,3.87
2022-09-26T06:54:08.585Z,5.33
2022-09-26T06:56:38.764Z,7.03
2022-09-26T06:59:05.640Z,4.63
2022-09-26T07:01:35.432Z,5.87
2022-09-26T07:04:20.931Z,5.63
2022-09-26T07:07:02.707Z,8.80
2022-09-26T07:09:33.563Z,4.90
2022-09-26T07:12:15.737Z,5.27
2022-09-26T07:14:48.890Z,4.60
2022-09-26T07:17:30.870Z,7.90
2022-09-26T07:20:18.553Z,4.37
2022-09-26T07:23:10.855Z,4.63
2022-09-26T07:25:39.817Z,5.00
2022-09-26T07:28:41.807Z,4.63
2022-09-26T07:31:17.765Z,5.83
2022-09-26T07:34:05.619Z,7.07
2022-09-26T07:36:32.295Z,7.73
2022-09-26T07:39:01.146Z,5.30
2022-09-26T07:41:31.139Z,4.07
2022-09-26T07:47:07.724Z,5.60
2022-09-26T07:49:54.818Z,4.23
2022-09-26T07:52:43.748Z,7.60
2022-09-26T07:55:26.248Z,5.07
2022-09-26T07:58:01.947Z,5.77
2022-09-26T08:01:15.041Z,7.03
2022-09-26T08:04:11.252Z,6.33
2022-09-26T08:06:40.094Z,4.97
2022-09-26T08:09:08.844Z,4.43
2022-09-26T08:11:55.786Z,4.83
2022-09-26T08:14:36.421Z,6.17
2022-09-26T08:17:19.880Z,5.73
2022-09-26T08:19:47.312Z,8.43
2022-09-26T08:22:14.584Z,6.60
2022-09-26T08:24:46.193Z,4.83
2022-09-26T08:27:18.328Z,4.43
2022-09-26T08:29:51.164Z,4.10
2022-09-26T08:32:21.312Z,5.23
2022-09-26T08:34:52.532Z,6.80
2022-09-26T08:37:33.130Z,5.07
2022-09-26T08:40:28.680Z,4.73
2022-09-26T08:43:56.215Z,5.22
2022-09-26T08:47:17.755Z,5.20
2022-09-26T08:50:28.388Z,4.38
2022-09-26T08:53:01.915Z,5.15
2022-09-26T08:55:37.283Z,2.38
2022-09-26T08:58:29.109Z,2.47
2022-09-26T09:01:05.075Z,3.63
2022-09-26T09:03:55.883Z,3.05
2022-09-26T09:06:26.969Z,2.53
2022-09-26T09:09:01.715Z,2.38
2022-09-26T09:11:53.720Z,4.85
2022-09-26T09:14:57.916Z,4.60
2022-09-26T09:17:55.643Z,2.03
2022-09-26T09:20:52.119Z,3.55
2022-09-26T09:23:45.093Z,5.32
2022-09-26T09:29:25.371Z,2.92
2022-09-26T09:32:18.940Z,3.50
2022-09-26T09:35:18.896Z,3.27
2022-09-26T09:38:24.391Z,4.63
2022-09-26T09:41:38.816Z,1.87
2022-09-26T09:44:34.076Z,3.30
2022-09-26T09:47:11.152Z,4.50
2022-09-26T09:49:38.027Z,3.23
2022-09-26T09:52:29.501Z,5.23
2022-09-26T09:55:08.844Z,2.83
2022-09-26T09:58:09.963Z,5.93
2022-09-26T10:01:39.074Z,1.60
2022-09-26T10:04:37.431Z,4.47
2022-09-26T10:07:05.466Z,3.47
2022-09-26T10:09:41.862Z,2.87
2022-09-26T10:12:32.889Z,3.17
2022-09-26T10:15:20.762Z,3.60
2022-09-26T10:18:26.794Z,1.87
2022-09-26T10:21:17.841Z,2.60
2022-09-26T10:23:50.353Z,3.13
2022-09-26T10:26:39.290Z,3.10
2022-09-26T10:29:24.964Z,2.80
2022-09-26T10:31:57.269Z,2.87
2022-09-26T10:34:24.082Z,4.07
2022-09-26T10:36:50.792Z,3.77
2022-09-26T10:39:48.988Z,1.93
2022-09-26T10:42:22.872Z,3.93
2022-09-26T10:44:57.514Z,2.37
2022-09-26T10:48:06.140Z,1.97
2022-09-26T10:51:02.799Z,1.70
2022-09-26T10:53:40.340Z,2.67
2022-09-26T10:56:11.974Z,3.33
2022-09-26T10:58:42.634Z,2.00
2022-09-26T11:01:26.418Z,2.10
2022-09-26T11:03:56.390Z,5.70
2022-09-26T11:06:35.906Z,3.20
2022-09-26T11:09:11.883Z,3.00
2022-09-26T11:11:58.631Z,2.83
2022-09-26T11:14:31.176Z,3.27
2022-09-26T11:17:03.255Z,4.93
2022-09-26T11:19:54.981Z,3.30
2022-09-26T11:22:37.350Z,3.77
2022-09-26T11:25:25.933Z,2.80
2022-09-26T11:31:22.822Z,2.57
2022-09-26T11:37:31.606Z,3.13
2022-09-26T11:40:10.038Z,5.07
2022-09-26T11:42:56.779Z,3.90
2022-09-26T11:45:40.827Z,2.67
2022-09-26T11:48:52.813Z,4.27
2022-09-26T11:52:03.441Z,3.43
2022-09-26T11:54:40.197Z,2.27
2022-09-26T11:57:31.925Z,3.30
2022-09-26T12:00:15.668Z,3.10
2022-09-26T12:03:29.861Z,1.43
2022-09-26T12:06:02.693Z,4.83
2022-09-26T12:09:00.539Z,5.77
2022-09-26T12:12:05.922Z,4.13
2022-09-26T12:14:36.037Z,3.87
2022-09-26T12:17:18.771Z,3.73
2022-09-26T12:20:01.040Z,2.63
2022-09-26T12:22:47.986Z,3.47
2022-09-26T12:25:26.906Z,3.33
2022-09-26T12:28:03.403Z,4.03
2022-09-26T12:30:37.668Z,5.03
2022-09-26T12:33:29.615Z,4.77
2022-09-26T12:36:08.988Z,4.37
2022-09-26T12:38:44.791Z,3.10
2022-09-26T12:41:23.210Z,4.50
2022-09-26T12:44:08.680Z,4.37
2022-09-26T12:46:38.015Z,3.67
2022-09-26T12:49:07.485Z,2.87
2022-09-26T12:51:59.005Z,3.63
2022-09-26T12:54:44.160Z,3.83
2022-09-26T12:57:29.347Z,6.40
2022-09-26T13:00:17.142Z,4.70
2022-09-26T13:02:56.622Z,3.77
2022-09-26T13:05:50.903Z,3.50
2022-09-26T13:09:01.492Z,4.00
2022-09-26T13:11:37.041Z,1.87
2022-09-26T13:14:10.665Z,1.00
2022-09-26T13:17:13.465Z,3.03
2022-09-26T13:19:51.627Z,3.20
2022-09-26T13:22:32.900Z,2.30
2022-09-26T13:25:07.922Z,1.90
2022-09-26T13:27:41.137Z,5.70
2022-09-26T13:30:13.952Z,1.30
2022-09-26T13:32:47.579Z,4.93
2022-09-26T13:35:22.200Z,2.10
2022-09-26T13:38:10.103Z,3.83
2022-09-26T13:40:55.110Z,2.33
2022-09-26T13:43:34.631Z,2.50
2022-09-26T13:46:06.378Z,3.43
2022-09-26T13:48:50.129Z,2.47
2022-09-26T13:51:18.411Z,3.70
2022-09-26T13:53:55.900Z,3.67
2022-09-26T13:56:34.921Z,4.30
2022-09-26T13:59:08.246Z,2.70
2022-09-26T14:01:36.385Z,2.30
2022-09-26T14:04:32.351Z,3.07
2022-09-26T14:07:38.483Z,4.07
2022-09-26T14:10:18.131Z,3.43
2022-09-26T14:13:08.094Z,3.80
2022-09-26T14:15:46.978Z,7.10
2022-09-26T14:18:47.174Z,1.50
2022-09-26T14:21:16.680Z,3.07
2022-09-26T14:23:44.536Z,3.50
2022-09-26T14:26:26.347Z,2.37
2022-09-26T14:28:55.580Z,1.90
2022-09-26T14:31:24.978Z,3.67
2022-09-26T14:34:24.953Z,5.10
2022-09-26T14:36:53.479Z,3.20
2022-09-26T14:39:28.337Z,2.50
2022-09-26T14:41:56.202Z,2.17
2022-09-26T14:44:23.433Z,4.53
2022-09-26T14:46:53.335Z,3.87
2022-09-26T14:49:24.397Z,1.70
2022-09-26T14:51:59.356Z,2.67
2022-09-26T14:54:39.746Z,3.50
2022-09-26T14:57:20.621Z,2.83
2022-09-26T14:59:48.271Z,3.63
2022-09-26T15:02:25.788Z,2.80
2022-09-26T15:05:06.590Z,2.80
2022-09-26T15:07:40.903Z,2.70
2022-09-26T15:10:21.639Z,2.97
2022-09-26T15:12:56.572Z,1.87
2022-09-26T15:15:39.138Z,4.50
2022-09-26T15:18:27.852Z,1.33
2022-09-26T15:21:04.627Z,1.77
2022-09-26T15:23:34.153Z,1.97
2022-09-26T15:26:02.730Z,3.03
2022-09-26T15:28:34.618Z,5.03
2022-09-26T15:31:22.422Z,3.60
2022-09-26T15:34:11.256Z,3.87
2022-09-26T15:36:39.905Z,8.00
2022-09-26T15:39:26.576Z,3.57
2022-09-26T15:42:11.939Z,2.63
2022-09-26T15:44:48.240Z,4.17
2022-09-26T15:47:30.075Z,4.03
2022-09-26T15:50:14.728Z,3.10
2022-09-26T15:52:49.856Z,2.47
2022-09-26T15:55:23.845Z,1.93
2022-09-26T15:57:53.248Z,1.20
2022-09-26T16:00:20.241Z,5.43
2022-09-26T16:02:47.263Z,4.50
2022-09-26T16:05:14.725Z,3.40
2022-09-26T16:07:48.693Z,4.23
2022-09-26T16:10:24.104Z,4.87
2022-09-26T16:12:51.076Z,3.27
2022-09-26T16:15:20.763Z,5.73
2022-09-26T16:17:57.977Z,3.17
2022-09-26T16:20:26.857Z,3.83
2022-09-26T16:23:05.547Z,3.47
2022-09-26T16:25:47.719Z,4.13
2022-09-26T16:28:18.027Z,2.77
2022-09-26T16:30:53.423Z,4.47
2022-09-26T16:33:26.262Z,4.40
2022-09-26T16:35:53.262Z,2.90
2022-09-26T16:38:31.123Z,4.97
2022-09-26T16:41:08.423Z,3.67
2022-09-26T16:43:37.516Z,3.77
2022-09-26T16:46:13.451Z,4.40
2022-09-26T16:48:53.945Z,4.30
2022-09-26T16:51:24.149Z,3.23
2022-09-26T16:54:09.122Z,3.90
2022-09-26T16:56:40.335Z,3.70
2022-09-26T16:59:21.451Z,5.37
2022-09-26T17:01:55.685Z,3.63
2022-09-26T17:04:32.738Z,7.23
2022-09-26T17:07:01.557Z,6.50
2022-09-26T17:09:32.685Z,4.37
2022-09-26T17:12:06.370Z,5.37
2022-09-26T17:14:40.791Z,3.57
2022-09-26T17:17:16.194Z,3.47
2022-09-26T17:19:45.247Z,3.90
2022-09-26T17:22:18.400Z,2.57
2022-09-26T17:24:47.167Z,4.63
2022-09-26T17:27:22.641Z,14.10
2022-09-26T17:29:51.468Z,6.77
2022-09-26T17:32:23.598Z,5.07
2022-09-26T17:34:51.584Z,23.33
2022-09-26T17:37:20.446Z,12.33
2022-09-26T17:39:47.267Z,5.83
2022-09-26T17:42:17.076Z,3.00
2022-09-26T17:44:47.590Z,2.63
2022-09-26T17:47:16.046Z,4.53
2022-09-26T17:49:48.698Z,5.83
2022-09-26T17:52:29.081Z,4.20
2022-09-26T17:54:58.555Z,5.70
2022-09-26T17:57:29.927Z,4.47
2022-09-26T17:59:57.631Z,4.33
2022-09-26T18:02:31.589Z,5.60
2022-09-26T18:05:03.181Z,7.73
2022-09-26T18:07:41.371Z,5.63
2022-09-26T18:10:17.316Z,5.70
2022-09-26T18:12:45.187Z,3.53
2022-09-26T18:15:16.070Z,3.30
2022-09-26T18:17:43.471Z,4.80
2022-09-26T18:20:10.185Z,3.90
2022-09-26T18:22:37.045Z,3.60
2022-09-26T18:25:14.903Z,2.57
2022-09-26T18:27:41.700Z,3.97
2022-09-26T18:30:13.658Z,2.10
2022-09-26T18:32:44.098Z,3.93
2022-09-26T18:35:25.300Z,5.30
2022-09-26T18:37:55.194Z,4.57
2022-09-26T18:40:24.415Z,4.00
2022-09-26T18:42:51.871Z,4.23
2022-09-26T18:45:35.818Z,3.43
2022-09-26T18:48:20.274Z,2.70
2022-09-26T18:50:47.268Z,2.83
2022-09-26T18:53:17.236Z,3.30
2022-09-26T18:56:02.834Z,2.93
2022-09-26T18:58:32.157Z,2.83
2022-09-26T19:01:04.976Z,2.90
2022-09-26T19:03:34.926Z,2.53
2022-09-26T19:06:12.700Z,3.73
2022-09-26T19:08:41.640Z,4.53
2022-09-26T19:11:13.643Z,3.07
2022-09-26T19:13:41.473Z,2.60
2022-09-26T19:16:08.853Z,2.33
2022-09-26T19:18:36.535Z,2.20
2022-09-26T19:21:06.200Z,2.37
2022-09-26T19:23:35.655Z,3.53
2022-09-26T19:26:05.555Z,2.50
2022-09-26T19:28:35.886Z,2.77
2022-09-26T19:31:04.081Z,2.10
2022-09-26T19:33:31.033Z,2.87
2022-09-26T19:35:57.815Z,3.50
2022-09-26T19:38:26.489Z,2.23
2022-09-26T19:40:53.903Z,2.20
2022-09-26T19:43:21.752Z,3.23
2022-09-26T19:45:52.178Z,3.10
2022-09-26T19:48:22.017Z,3.53
2022-09-26T19:50:50.874Z,6.77
2022-09-26T19:53:20.397Z,2.40
2022-09-26T19:55:50.762Z,2.10
2022-09-26T19:58:25.493Z,3.13
2022-09-26T20:00:54.627Z,3.90
2022-09-26T20:03:21.277Z,3.10
2022-09-26T20:05:49.624Z,2.83
2022-09-26T20:08:27.342Z,4.20
2022-09-26T20:10:57.908Z,3.77
2022-09-26T20:13:24.667Z,3.53
2022-09-26T20:15:51.661Z,4.93
2022-09-26T20:18:22.215Z,3.53
2022-09-26T20:20:56.782Z,2.83
2022-09-26T20:23:25.999Z,3.33
2022-09-26T20:25:54.390Z,2.37
2022-09-26T20:28:21.394Z,2.53
2022-09-26T20:30:51.367Z,2.10
2022-09-26T20:33:21.757Z,5.67
2022-09-26T20:36:02.949Z,3.03
2022-09-26T20:38:39.191Z,3.40
2022-09-26T20:41:13.536Z,2.70
2022-09-26T20:43:46.705Z,5.47
2022-09-26T20:46:14.782Z,2.47
2022-09-26T20:48:44.787Z,2.77
2022-09-26T20:51:29.948Z,2.20
2022-09-26T20:54:00.614Z,2.73
2022-09-26T20:56:28.280Z,2.70
2022-09-26T20:58:55.199Z,2.17
2022-09-26T21:01:22.416Z,2.97
2022-09-26T21:03:55.164Z,2.77
2022-09-26T21:06:33.195Z,2.83
2022-09-26T21:09:00.593Z,3.33
2022-09-26T21:11:27.387Z,4.13
2022-09-26T21:13:54.074Z,4.33
2022-09-26T21:16:21.826Z,4.77
2022-09-26T21:18:51.940Z,4.63
2022-09-26T21:21:28.229Z,3.87
2022-09-26T21:24:04.478Z,3.40
2022-09-26T21:26:31.615Z,3.00
2022-09-26T21:28:58.443Z,3.53
2022-09-26T21:31:26.866Z,3.20
2022-09-26T21:33:56.246Z,2.50
2022-09-26T21:36:24.065Z,4.90
2022-09-26T21:38:53.764Z,5.43
2022-09-26T21:41:20.592Z,6.27
2022-09-26T21:43:54.927Z,3.47
2022-09-26T21:46:21.745Z,3.90
2022-09-26T21:48:48.856Z,4.93
2022-09-26T21:51:15.890Z,5.60
2022-09-26T21:53:52.707Z,4.20
2022-09-26T21:56:25.570Z,3.43
2022-09-26T21:58:52.952Z,3.93
2022-09-26T22:01:20.363Z,3.30
2022-09-26T22:03:47.159Z,3.17
2022-09-26T22:06:13.887Z,3.67
2022-09-26T22:08:41.036Z,2.50
2022-09-26T22:11:09.000Z,2.73
2022-09-26T22:13:37.263Z,3.30
2022-09-26T22:16:06.575Z,3.70
2022-09-26T22:18:35.686Z,2.70
2022-09-26T22:21:04.732Z,4.67
2022-09-26T22:23:32.589Z,3.40
2022-09-26T22:26:00.028Z,2.90
2022-09-26T22:28:27.224Z,3.27
2022-09-26T22:30:54.636Z,3.53
2022-09-26T22:33:22.574Z,1.97
2022-09-26T22:35:50.448Z,3.07
2022-09-26T22:38:18.213Z,1.80
2022-09-26T22:40:46.255Z,1.83
2022-09-26T22:43:13.268Z,2.20
2022-09-26T22:45:40.348Z,2.20
2022-09-26T22:48:07.347Z,3.33
2022-09-26T22:50:34.496Z,3.40
2022-09-26T22:53:01.210Z,2.77
2022-09-26T22:55:27.887Z,2.70
2022-09-26T22:57:54.572Z,3.17
2022-09-26T23:00:21.238Z,3.97
2022-09-26T23:02:47.982Z,4.50
2022-09-26T23:05:14.839Z,4.33
2022-09-26T23:07:41.515Z,2.20
2022-09-26T23:10:08.338Z,4.37
2022-09-26T23:12:35.011Z,3.37
2022-09-26T23:15:01.709Z,2.47
2022-09-26T23:17:28.915Z,3.53
2022-09-26T23:19:55.602Z,4.83
2022-09-26T23:22:22.413Z,6.07
2022-09-26T23:24:49.329Z,3.63
2022-09-26T23:27:16.244Z,3.87
2022-09-26T23:29:43.134Z,5.70
2022-09-26T23:32:09.999Z,6.37
2022-09-26T23:34:36.666Z,5.00
2022-09-26T23:37:03.392Z,3.83
2022-09-26T23:39:30.323Z,3.40
2022-09-26T23:41:58.268Z,5.40
2022-09-26T23:44:24.979Z,3.00
2022-09-26T23:46:51.719Z,4.97
2022-09-26T23:49:18.428Z,4.27
2022-09-26T23:51:47.441Z,5.60
2022-09-26T23:54:14.441Z,6.20
2022-09-26T23:56:41.487Z,4.20
2022-09-26T23:59:08.738Z,3.87
